Time;durP1;ratioP1;P1;durP2;ratioP2;P2;SDS_P1;SDS_P2;PMS_P1;PMS_P2;Temp;Humidity;BMP_temperature;BMP_pressure;BME280_temperature;BME280_humidity;BME280_pressure;Samples;Min_cycle;Max_cycle;Signal;HPM_P1;HPM_P2
2022/01/13 00:02:20;;;;;;;45.90;17.95;;;5.60;94.40;;;;;;5094596;28;20421;-42
2022/01/13 00:04:47;;;;;;;44.83;16.58;;;5.60;94.40;;;;;;5081810;28;20084;-43
2022/01/13 00:07:14;;;;;;;45.90;17.10;;;5.60;94.40;;;;;;5114868;28;20028;-43
2022/01/13 00:09:43;;;;;;;47.72;18.42;;;5.60;94.40;;;;;;5112754;28;20107;-42
2022/01/13 00:12:11;;;;;;;39.08;16.27;;;5.60;94.40;;;;;;5114815;28;20100;-42
2022/01/13 00:14:51;;;;;;;40.28;17.73;;;5.60;94.40;;;;;;5105779;28;20043;-42
2022/01/13 00:19:55;;;;;;;45.47;16.67;;;5.60;94.40;;;;;;5101871;28;20379;-42
2022/01/13 00:25:03;;;;;;;47.20;17.23;;;5.60;94.40;;;;;;5103544;28;20369;-42
2022/01/13 00:27:32;;;;;;;50.00;17.83;;;5.60;94.40;;;;;;5094244;28;20027;-42
2022/01/13 00:30:01;;;;;;;46.65;18.27;;;5.60;94.40;;;;;;5070577;28;20028;-41
2022/01/13 00:32:31;;;;;;;49.60;18.80;;;5.60;94.40;;;;;;5099945;28;20027;-42
2022/01/13 00:34:58;;;;;;;56.08;19.63;;;5.60;94.50;;;;;;5114520;28;20115;-42
2022/01/13 00:37:25;;;;;;;56.95;19.30;;;5.60;94.50;;;;;;5091233;28;20123;-42
2022/01/13 00:39:54;;;;;;;45.63;18.58;;;5.70;94.50;;;;;;5094331;28;20032;-43
2022/01/13 00:42:23;;;;;;;41.45;17.52;;;5.70;94.50;;;;;;5114182;28;20364;-42
2022/01/13 00:44:53;;;;;;;53.95;18.67;;;5.70;94.50;;;;;;5082250;28;20040;-42
2022/01/13 00:47:20;;;;;;;49.33;18.98;;;5.70;94.50;;;;;;5093702;28;20079;-42
2022/01/13 00:49:47;;;;;;;61.90;22.17;;;5.80;94.50;;;;;;5098828;28;20032;-43
2022/01/13 00:52:14;;;;;;;63.15;20.90;;;5.80;94.50;;;;;;5113734;28;20028;-42
2022/01/13 00:54:41;;;;;;;72.80;23.27;;;5.80;94.50;;;;;;5084608;28;20133;-42
2022/01/13 00:57:11;;;;;;;66.18;22.10;;;5.80;94.50;;;;;;5095916;28;20084;-42
2022/01/13 00:59:38;;;;;;;77.80;24.13;;;5.90;94.60;;;;;;5114154;28;20119;-41
2022/01/13 01:02:03;;;;;;;79.22;25.10;;;5.80;94.60;;;;;;5113608;28;20040;-42
2022/01/13 01:04:30;;;;;;;59.88;23.40;;;5.90;94.50;;;;;;5105376;28;20051;-42
2022/01/13 01:06:57;;;;;;;88.63;26.20;;;5.90;94.50;;;;;;5096760;28;20035;-42
2022/01/13 01:10:08;;;;;;;72.35;25.40;;;5.90;94.50;;;;;;5099645;28;20028;-43
2022/01/13 01:12:10;;;;;;;79.38;25.00;;;5.90;94.60;;;;;;5092477;28;20047;-42
2022/01/13 01:14:42;;;;;;;70.93;24.38;;;5.90;94.60;;;;;;5080298;28;20091;-43
2022/01/13 01:17:08;;;;;;;88.68;26.35;;;5.90;94.60;;;;;;5113937;28;20027;-42
2022/01/13 01:19:36;;;;;;;73.13;23.08;;;5.90;94.60;;;;;;5113167;28;20114;-42
2022/01/13 01:27:20;;;;;;;76.38;25.98;;;5.90;94.60;;;;;;5093788;28;20039;-42
2022/01/13 01:32:44;;;;;;;81.82;26.92;;;5.90;94.60;;;;;;5089431;28;20032;-42
2022/01/13 01:35:24;;;;;;;76.85;27.10;;;5.90;94.60;;;;;;5097249;28;20441;-43
2022/01/13 01:37:51;;;;;;;72.93;27.10;;;5.90;94.60;;;;;;5093721;28;20039;-42
2022/01/13 01:40:17;;;;;;;82.38;26.20;;;5.90;94.60;;;;;;5094527;28;20492;-42
2022/01/13 01:42:46;;;;;;;92.35;28.65;;;6.00;94.60;;;;;;5075536;28;20051;-42
2022/01/13 01:45:15;;;;;;;87.18;31.50;;;6.00;94.60;;;;;;5096611;28;20035;-42
2022/01/13 01:47:43;;;;;;;89.88;28.67;;;5.90;94.60;;;;;;5094189;28;20134;-42
2022/01/13 01:50:18;;;;;;;77.03;27.80;;;5.90;94.60;;;;;;5113696;28;20103;-42
2022/01/13 01:52:47;;;;;;;87.30;29.98;;;6.00;94.60;;;;;;5112582;28;20055;-42
2022/01/13 01:55:16;;;;;;;85.15;26.98;;;6.00;94.60;;;;;;5103335;28;20380;-42
2022/01/13 01:57:49;;;;;;;79.07;28.45;;;6.00;94.60;;;;;;5113358;28;20035;-42
2022/01/13 02:00:18;;;;;;;77.18;27.75;;;6.00;94.60;;;;;;5093042;28;20024;-42
2022/01/13 02:02:48;;;;;;;78.57;28.33;;;6.00;94.60;;;;;;5078814;28;20463;-42
2022/01/13 02:05:15;;;;;;;;;;;6.00;94.60;;;;;;5109219;28;20046;-42
2022/01/13 02:07:41;;;;;;;83.45;27.48;;;6.00;94.60;;;;;;5096778;28;19904;-41
2022/01/13 02:10:09;;;;;;;80.68;29.98;;;6.00;94.60;;;;;;5097243;28;20043;-43
2022/01/13 02:12:43;;;;;;;75.13;25.90;;;6.00;94.60;;;;;;5099102;28;20716;-42
2022/01/13 02:17:39;;;;;;;72.50;25.95;;;6.00;94.60;;;;;;5096933;28;20441;-42
2022/01/13 02:20:19;;;;;;;76.13;28.77;;;6.00;94.60;;;;;;5116655;28;20038;-42
2022/01/13 02:22:46;;;;;;;63.75;23.58;;;6.10;94.60;;;;;;5098108;28;20032;-42
2022/01/13 02:25:15;;;;;;;69.32;24.95;;;6.10;94.60;;;;;;5087867;28;20094;-42
2022/01/13 02:27:43;;;;;;;65.82;23.58;;;6.10;94.70;;;;;;5115106;28;20072;-43
2022/01/13 02:30:14;;;;;;;76.93;26.27;;;6.10;94.60;;;;;;5109081;28;20016;-42
2022/01/13 02:32:41;;;;;;;63.88;24.70;;;6.10;94.60;;;;;;5096385;28;20024;-41
2022/01/13 02:35:08;;;;;;;73.80;27.67;;;6.10;94.60;;;;;;5100850;28;20035;-44
2022/01/13 02:37:34;;;;;;;86.90;30.23;;;6.10;94.60;;;;;;5095976;28;20085;-42
2022/01/13 02:40:02;;;;;;;71.57;28.55;;;6.10;94.60;;;;;;5101995;28;20035;-43
2022/01/13 02:42:29;;;;;;;82.60;30.92;;;6.00;94.60;;;;;;5116325;28;20046;-43
2022/01/13 02:45:02;;;;;;;67.38;25.80;;;6.10;94.60;;;;;;5081675;28;20036;-43
2022/01/13 02:50:11;;;;;;;69.65;27.25;;;6.10;94.60;;;;;;5105546;28;20084;-41
2022/01/13 02:52:39;;;;;;;65.72;25.92;;;6.10;94.50;;;;;;5095400;28;20032;-41
2022/01/13 02:55:05;;;;;;;65.97;27.88;;;6.10;94.60;;;;;;5106171;28;20034;-42
2022/01/13 02:57:32;;;;;;;76.40;29.80;;;6.10;94.60;;;;;;5114318;28;20593;-43
2022/01/13 03:00:00;;;;;;;72.45;24.55;;;6.10;94.60;;;;;;5100984;28;20449;-43
2022/01/13 03:02:30;;;;;;;70.97;24.85;;;6.10;94.50;;;;;;5079025;28;20032;-44
2022/01/13 03:04:58;;;;;;;60.80;26.13;;;6.00;94.40;;;;;;5107722;28;20038;-43
2022/01/13 03:07:26;;;;;;;56.30;23.00;;;6.00;94.50;;;;;;5095782;28;20480;-42
2022/01/13 03:09:55;;;;;;;55.83;24.65;;;6.00;94.50;;;;;;5095938;28;20016;-42
2022/01/13 03:12:25;;;;;;;65.60;27.08;;;6.00;94.40;;;;;;5094904;28;20096;-43
2022/01/13 03:14:52;;;;;;;53.45;23.73;;;6.00;94.40;;;;;;5113853;28;20352;-42
2022/01/13 03:17:18;;;;;;;65.32;25.40;;;6.00;94.40;;;;;;5114596;28;20496;-43
2022/01/13 03:19:45;;;;;;;59.47;26.90;;;6.00;94.40;;;;;;5111591;28;20040;-43
2022/01/13 03:22:14;;;;;;;52.40;23.88;;;6.00;94.40;;;;;;5094994;28;20032;-42
2022/01/13 03:24:41;;;;;;;60.83;26.45;;;5.90;94.40;;;;;;5099234;28;20035;-43
2022/01/13 03:27:12;;;;;;;52.88;23.67;;;6.00;94.40;;;;;;5115281;28;20390;-42
2022/01/13 03:29:42;;;;;;;50.42;23.58;;;5.90;94.30;;;;;;5102730;28;20035;-43
2022/01/13 03:32:09;;;;;;;51.33;22.88;;;5.90;94.30;;;;;;5095349;28;20032;-42
2022/01/13 03:34:36;;;;;;;52.30;22.67;;;5.90;94.30;;;;;;5081029;28;20062;-42
2022/01/13 03:37:06;;;;;;;49.80;23.90;;;5.90;94.30;;;;;;5115294;28;20036;-43
2022/01/13 03:39:33;;;;;;;59.17;25.75;;;5.90;94.20;;;;;;5104597;28;20055;-42
2022/01/13 03:42:02;;;;;;;51.72;22.92;;;5.90;94.20;;;;;;5095079;28;20035;-41
2022/01/13 03:44:32;;;;;;;;;;;5.90;94.20;;;;;;5102237;28;20023;-44
2022/01/13 03:47:04;;;;;;;67.65;24.85;;;5.90;94.20;;;;;;5095282;28;19970;-43
2022/01/13 03:49:31;;;;;;;61.33;26.00;;;5.90;94.10;;;;;;5095556;28;20100;-42
2022/01/13 03:52:03;;;;;;;59.60;25.48;;;5.80;94.10;;;;;;5115096;28;20023;-42
2022/01/13 03:55:30;;;;;;;61.75;26.17;;;5.80;94.10;;;;;;5099365;28;20024;-42
2022/01/13 03:58:29;;;;;;;68.75;25.77;;;5.80;94.10;;;;;;5088956;28;20043;-42
2022/01/13 04:01:19;;;;;;;59.55;27.58;;;5.80;94.10;;;;;;5076797;28;20023;-43
2022/01/13 04:03:46;;;;;;;71.57;28.40;;;5.80;94.00;;;;;;5097137;28;20095;-42
2022/01/13 04:06:14;;;;;;;60.33;26.17;;;5.80;94.00;;;;;;5098673;28;20372;-42
2022/01/13 04:08:41;;;;;;;62.35;25.38;;;5.70;94.00;;;;;;5095428;28;20338;-42
2022/01/13 04:11:28;;;;;;;52.90;24.70;;;5.70;94.00;;;;;;5110316;28;20047;-42
2022/01/13 04:14:00;;;;;;;57.33;26.10;;;5.70;93.90;;;;;;5084967;28;20050;-42
2022/01/13 04:16:30;;;;;;;51.95;25.23;;;5.70;94.00;;;;;;5112979;28;20115;-42
2022/01/13 04:19:03;;;;;;;61.53;25.65;;;5.70;94.00;;;;;;5091438;28;20361;-41
2022/01/13 04:21:36;;;;;;;49.78;22.40;;;5.70;93.90;;;;;;5113046;28;20040;-42
2022/01/13 04:24:05;;;;;;;58.30;24.85;;;5.70;93.90;;;;;;5104302;28;20028;-41
2022/01/13 04:26:33;;;;;;;50.22;23.98;;;5.70;93.90;;;;;;5099466;28;20028;-42
2022/01/13 04:31:43;;;;;;;45.58;23.58;;;5.70;93.90;;;;;;5113915;28;20088;-42
2022/01/13 04:34:11;;;;;;;46.70;23.40;;;5.70;93.80;;;;;;5102790;28;20034;-42
2022/01/13 04:36:38;;;;;;;47.53;21.73;;;5.60;93.80;;;;;;5100685;28;20460;-42
2022/01/13 04:39:06;;;;;;;51.65;24.48;;;5.60;93.80;;;;;;5114348;28;20023;-42
2022/01/13 04:41:35;;;;;;;44.05;22.10;;;5.60;93.80;;;;;;5113727;28;20076;-43
2022/01/13 04:44:07;;;;;;;46.27;21.93;;;5.60;93.80;;;;;;5112516;28;20123;-42
2022/01/13 04:46:37;;;;;;;48.25;23.10;;;5.60;93.80;;;;;;5076558;28;20124;-43
2022/01/13 04:49:08;;;;;;;56.30;26.13;;;5.60;93.70;;;;;;5096422;28;20058;-42
2022/01/13 04:51:37;;;;;;;51.53;24.23;;;5.60;93.70;;;;;;5093855;28;20020;-45
2022/01/13 04:54:06;;;;;;;46.50;22.65;;;5.60;93.70;;;;;;5099000;28;20031;-43
2022/01/13 04:59:17;;;;;;;39.65;20.95;;;5.60;93.70;;;;;;5100783;28;20040;-42
2022/01/13 05:01:44;;;;;;;46.70;22.02;;;5.50;93.70;;;;;;5110229;28;20062;-43
2022/01/13 05:04:11;;;;;;;45.63;23.13;;;5.60;93.70;;;;;;5093575;28;20040;-42
2022/01/13 05:06:37;;;;;;;42.60;21.70;;;5.60;93.70;;;;;;5093737;28;20027;-42
2022/01/13 05:09:04;;;;;;;44.70;21.63;;;5.60;93.80;;;;;;5106260;28;20020;-42
2022/01/13 05:11:30;;;;;;;47.40;21.98;;;5.60;93.80;;;;;;5101231;28;20382;-42
2022/01/13 05:13:57;;;;;;;46.00;21.05;;;5.50;93.70;;;;;;5076151;28;20074;-42
2022/01/13 05:16:46;;;;;;;44.30;21.52;;;5.60;93.70;;;;;;5102768;28;20055;-42
2022/01/13 05:19:18;;;;;;;47.20;21.52;;;5.60;93.70;;;;;;5111962;28;20066;-44
2022/01/13 05:24:12;;;;;;;47.80;22.30;;;5.60;93.80;;;;;;5110533;28;20033;-42
2022/01/13 05:26:38;;;;;;;46.28;23.33;;;5.60;93.80;;;;;;5113298;28;20024;-41
2022/01/13 05:29:04;;;;;;;58.60;23.00;;;5.60;93.80;;;;;;5111518;28;20031;-43
2022/01/13 05:31:31;;;;;;;52.10;25.00;;;5.60;93.70;;;;;;5097776;28;20059;-43
2022/01/13 05:33:58;;;;;;;50.28;22.23;;;5.70;93.80;;;;;;5098075;28;20036;-43
2022/01/13 05:36:25;;;;;;;44.05;20.38;;;5.70;93.70;;;;;;5095021;28;20036;-42
2022/01/13 05:38:51;;;;;;;58.92;24.45;;;5.70;93.70;;;;;;5097208;28;20063;-43
2022/01/13 05:41:18;;;;;;;55.85;22.63;;;5.70;93.70;;;;;;5098881;28;20129;-42
2022/01/13 05:43:45;;;;;;;65.65;26.85;;;5.70;93.80;;;;;;5117886;28;20118;-45
2022/01/13 05:46:11;;;;;;;51.05;22.10;;;5.70;93.70;;;;;;5100901;28;20064;-42
2022/01/13 05:48:37;;;;;;;53.38;21.25;;;5.70;93.80;;;;;;5097198;28;20117;-42
2022/01/13 05:51:04;;;;;;;44.97;20.98;;;5.60;93.80;;;;;;5080317;28;20068;-43
2022/01/13 05:53:33;;;;;;;52.70;21.75;;;5.70;93.80;;;;;;5116034;28;20456;-42
2022/01/13 05:56:00;;;;;;;51.30;22.70;;;5.70;93.80;;;;;;5091608;28;20045;-42
2022/01/13 05:58:26;;;;;;;53.13;24.08;;;5.70;93.90;;;;;;5117520;28;20042;-43
2022/01/13 06:00:56;;;;;;;50.70;23.08;;;5.70;94.00;;;;;;5092101;28;20028;-42
2022/01/13 06:03:22;;;;;;;56.50;24.75;;;5.70;93.90;;;;;;5114692;28;20059;-43
2022/01/13 06:05:49;;;;;;;60.13;23.85;;;5.70;93.90;;;;;;5103827;28;20361;-42
2022/01/13 06:08:16;;;;;;;59.47;22.85;;;5.70;94.00;;;;;;5096927;28;20478;-42
2022/01/13 06:10:45;;;;;;;66.20;24.38;;;5.70;94.00;;;;;;5107431;28;20050;-43
2022/01/13 06:13:13;;;;;;;50.73;23.30;;;5.80;94.00;;;;;;5100930;28;20357;-42
2022/01/13 06:15:40;;;;;;;57.83;23.90;;;5.80;94.00;;;;;;5077232;28;20032;-42
2022/01/13 06:18:16;;;;;;;64.32;26.20;;;5.80;94.00;;;;;;5096794;28;20036;-42
2022/01/13 06:20:44;;;;;;;67.32;26.10;;;5.70;94.00;;;;;;5102530;28;20039;-42
2022/01/13 06:23:12;;;;;;;66.72;26.23;;;5.80;94.00;;;;;;5096578;28;20087;-43
2022/01/13 06:25:39;;;;;;;61.63;25.45;;;5.80;94.00;;;;;;5108152;28;20020;-42
2022/01/13 06:28:06;;;;;;;54.42;22.27;;;5.80;94.10;;;;;;5117068;28;20453;-43
2022/01/13 06:30:33;;;;;;;68.82;24.02;;;5.80;94.10;;;;;;5111887;28;20039;-42
2022/01/13 06:33:01;;;;;;;60.92;25.50;;;5.80;94.10;;;;;;5085234;28;20032;-43
2022/01/13 06:35:27;;;;;;;61.40;25.35;;;5.70;94.10;;;;;;5110628;28;20497;-43
2022/01/13 06:37:54;;;;;;;60.80;25.13;;;5.80;94.10;;;;;;5101201;28;20048;-42
2022/01/13 06:40:21;;;;;;;53.03;24.45;;;5.80;94.10;;;;;;5103635;28;20031;-43
2022/01/13 06:42:48;;;;;;;63.20;23.48;;;5.80;94.10;;;;;;5098679;28;20085;-42
2022/01/13 06:45:14;;;;;;;60.10;23.35;;;5.80;94.20;;;;;;5107751;28;20073;-42
2022/01/13 06:47:42;;;;;;;54.33;24.67;;;5.80;94.10;;;;;;5095537;28;20060;-43
2022/01/13 06:50:11;;;;;;;59.83;24.35;;;5.80;94.20;;;;;;5090076;28;20055;-45
2022/01/13 06:52:38;;;;;;;58.92;26.15;;;5.80;94.10;;;;;;5098659;28;20035;-42
2022/01/13 06:55:09;;;;;;;69.93;25.98;;;5.70;94.20;;;;;;5111621;28;20353;-42
2022/01/13 06:57:37;;;;;;;60.15;23.77;;;5.80;94.20;;;;;;5103176;28;20036;-43
2022/01/13 07:00:05;;;;;;;61.97;25.83;;;5.80;94.20;;;;;;5102718;28;20475;-43
2022/01/13 07:02:33;;;;;;;67.55;24.42;;;5.80;94.20;;;;;;5096919;28;20028;-42
2022/01/13 07:05:00;;;;;;;64.18;25.77;;;5.80;94.20;;;;;;5082122;28;20028;-43
2022/01/13 07:07:34;;;;;;;70.35;24.88;;;5.80;94.20;;;;;;5077747;28;20085;-43
2022/01/13 07:10:02;;;;;;;66.65;26.38;;;5.80;94.20;;;;;;5098081;28;20116;-43
2022/01/13 07:12:28;;;;;;;66.38;28.30;;;5.80;94.30;;;;;;5081325;28;20034;-44
2022/01/13 07:14:57;;;;;;;77.20;28.52;;;5.80;94.20;;;;;;5090264;28;20084;-42
2022/01/13 07:17:24;;;;;;;72.53;28.50;;;5.80;94.30;;;;;;5113961;28;20034;-42
2022/01/13 07:19:52;;;;;;;63.97;26.80;;;5.90;94.30;;;;;;5107577;28;20037;-42
2022/01/13 07:22:19;;;;;;;68.53;26.08;;;5.80;94.30;;;;;;5095891;28;20115;-42
2022/01/13 07:24:49;;;;;;;64.10;26.98;;;5.80;94.30;;;;;;5098160;28;20035;-42
2022/01/13 07:27:16;;;;;;;69.03;27.15;;;5.90;94.40;;;;;;5099424;28;20032;-43
2022/01/13 07:29:45;;;;;;;73.88;26.80;;;5.90;94.40;;;;;;5081717;28;20353;-42
2022/01/13 07:32:12;;;;;;;61.07;25.97;;;5.90;94.30;;;;;;5113868;28;20071;-43
2022/01/13 07:34:39;;;;;;;84.60;28.90;;;5.90;94.40;;;;;;5086308;28;20405;-42
2022/01/13 07:37:06;;;;;;;69.10;27.27;;;5.90;94.40;;;;;;5098573;28;20114;-43
2022/01/13 07:39:35;;;;;;;77.22;27.33;;;5.90;94.40;;;;;;5095133;28;20024;-42
2022/01/13 07:42:04;;;;;;;72.32;27.05;;;5.90;94.40;;;;;;5112228;28;20039;-42
2022/01/13 07:44:31;;;;;;;76.30;27.58;;;5.90;94.40;;;;;;5113647;28;20453;-43
2022/01/13 07:47:00;;;;;;;62.95;27.10;;;5.90;94.40;;;;;;5080350;28;20048;-43
2022/01/13 07:49:28;;;;;;;83.95;31.02;;;5.90;94.40;;;;;;5113286;28;20324;-42
2022/01/13 07:51:55;;;;;;;82.45;28.75;;;5.90;94.40;;;;;;5110437;28;20028;-41
2022/01/13 07:54:27;;;;;;;79.47;27.83;;;6.00;94.50;;;;;;5106180;28;20039;-43
2022/01/13 07:56:53;;;;;;;73.35;28.55;;;6.00;94.40;;;;;;5094942;28;20028;-42
2022/01/13 07:59:20;;;;;;;80.90;31.20;;;5.90;94.40;;;;;;5102347;28;20047;-42
2022/01/13 08:01:48;;;;;;;93.72;32.42;;;6.00;94.40;;;;;;5095848;28;20042;-41
2022/01/13 08:04:17;;;;;;;80.63;29.27;;;5.90;94.50;;;;;;5097896;28;20535;-43
2022/01/13 08:06:44;;;;;;;77.20;30.52;;;6.00;94.50;;;;;;5094678;28;20020;-41
2022/01/13 08:09:09;;;;;;;77.35;30.73;;;6.00;94.40;;;;;;5076926;28;20125;-41
2022/01/13 08:11:36;;;;;;;93.15;29.95;;;6.00;94.40;;;;;;5082826;28;20055;-42
2022/01/13 08:14:02;;;;;;;87.72;30.80;;;6.00;94.40;;;;;;5103043;28;20051;-42
2022/01/13 08:16:33;;;;;;;80.07;32.45;;;6.00;94.40;;;;;;5115111;28;20031;-42
2022/01/13 08:21:47;;;;;;;78.00;29.27;;;6.00;94.50;;;;;;5110610;28;20085;-43
2022/01/13 08:24:13;;;;;;;74.85;31.23;;;6.10;94.50;;;;;;5105302;28;20081;-42
2022/01/13 08:26:40;;;;;;;80.35;32.22;;;6.10;94.50;;;;;;5114841;28;20433;-44
2022/01/13 08:29:07;;;;;;;86.90;30.98;;;6.20;94.50;;;;;;5106579;28;20051;-41
2022/01/13 08:31:34;;;;;;;84.80;31.10;;;6.10;94.50;;;;;;5098808;28;20611;-42
2022/01/13 08:34:01;;;;;;;68.82;29.83;;;6.20;94.50;;;;;;5100571;28;20027;-41
2022/01/13 08:36:27;;;;;;;77.13;30.58;;;6.20;94.50;;;;;;5112549;28;20039;-42
2022/01/13 08:38:54;;;;;;;74.00;26.70;;;6.20;94.50;;;;;;5083660;28;20032;-42
2022/01/13 08:41:24;;;;;;;82.45;30.92;;;6.20;94.50;;;;;;5114477;28;20123;-43
2022/01/13 08:43:53;;;;;;;70.97;27.65;;;6.20;94.40;;;;;;5114659;28;20040;-41
2022/01/13 08:46:19;;;;;;;85.72;29.98;;;6.30;94.50;;;;;;5113518;28;20417;-42
2022/01/13 08:48:45;;;;;;;70.93;27.30;;;6.30;94.40;;;;;;5114119;28;20097;-42
2022/01/13 08:51:12;;;;;;;65.40;25.92;;;6.30;94.40;;;;;;5093741;28;20027;-41
2022/01/13 08:53:45;;;;;;;68.32;27.65;;;6.40;94.50;;;;;;5108810;28;20039;-42
2022/01/13 08:56:13;;;;;;;52.33;24.77;;;6.40;94.40;;;;;;5110954;28;20452;-42
2022/01/13 08:58:41;;;;;;;57.00;25.17;;;6.40;94.40;;;;;;5111373;28;20388;-42
2022/01/13 09:01:07;;;;;;;67.43;27.52;;;6.40;94.40;;;;;;5080359;28;20039;-41
2022/01/13 09:03:35;;;;;;;56.72;24.38;;;6.50;94.40;;;;;;5093438;28;20028;-41
2022/01/13 09:06:03;;;;;;;65.35;26.85;;;6.60;94.30;;;;;;5106706;28;20410;-41
2022/01/13 09:08:33;;;;;;;68.63;26.63;;;6.50;94.30;;;;;;5097820;28;20507;-43
2022/01/13 09:11:01;;;;;;;54.65;23.63;;;6.50;94.20;;;;;;5106730;28;20024;-43
2022/01/13 09:13:33;;;;;;;63.63;23.00;;;6.50;94.20;;;;;;5100316;28;20035;-42
2022/01/13 09:16:00;;;;;;;52.83;21.67;;;6.50;94.20;;;;;;5114832;28;20028;-42
2022/01/13 09:20:58;;;;;;;53.60;21.55;;;6.50;94.20;;;;;;5102644;28;20383;-42
2022/01/13 09:23:25;;;;;;;48.33;18.75;;;6.60;94.20;;;;;;5088499;28;20024;-42
2022/01/13 09:25:54;;;;;;;44.72;19.33;;;6.70;94.20;;;;;;5107235;28;20036;-43
2022/01/13 09:28:20;;;;;;;45.38;20.65;;;6.60;94.10;;;;;;5104064;28;20028;-41
2022/01/13 09:30:46;;;;;;;42.45;19.55;;;6.60;94.10;;;;;;5112671;28;20056;-43
2022/01/13 09:33:13;;;;;;;42.13;20.27;;;6.60;94.10;;;;;;5101468;28;20745;-42
2022/01/13 09:35:39;;;;;;;41.38;18.48;;;6.60;94.00;;;;;;5092603;28;20023;-42
2022/01/13 09:38:07;;;;;;;42.55;18.55;;;6.60;94.00;;;;;;5118961;28;20110;-42
2022/01/13 09:40:34;;;;;;;39.10;18.90;;;6.50;93.90;;;;;;5116368;28;20031;-42
2022/01/13 09:43:02;;;;;;;47.33;20.13;;;6.60;94.00;;;;;;5102770;28;20030;-42
2022/01/13 09:45:32;;;;;;;40.35;18.25;;;6.60;94.00;;;;;;5116351;28;20023;-43
2022/01/13 09:47:58;;;;;;;42.00;20.88;;;6.60;94.00;;;;;;5086829;28;20044;-44
2022/01/13 09:50:26;;;;;;;40.80;18.73;;;6.60;93.90;;;;;;5101260;28;20032;-43
2022/01/13 09:52:55;;;;;;;38.42;18.25;;;6.60;93.90;;;;;;5100144;28;20020;-42
2022/01/13 09:55:22;;;;;;;39.92;19.48;;;6.60;93.90;;;;;;5094230;28;20085;-44
2022/01/13 09:57:51;;;;;;;42.92;19.27;;;6.60;93.90;;;;;;5118279;28;20040;-42
2022/01/13 10:00:21;;;;;;;38.70;18.13;;;6.60;93.90;;;;;;5111990;28;20046;-42
2022/01/13 10:02:48;;;;;;;46.28;20.73;;;6.60;93.90;;;;;;5082064;28;20110;-42
2022/01/13 10:05:20;;;;;;;48.58;20.25;;;6.60;93.80;;;;;;5109351;28;20028;-42
2022/01/13 10:07:48;;;;;;;47.00;20.10;;;6.60;93.80;;;;;;5098928;28;20126;-41
2022/01/13 10:10:17;;;;;;;45.70;21.65;;;6.60;93.90;;;;;;5093393;28;20528;-42
2022/01/13 10:12:46;;;;;;;53.38;21.35;;;6.70;93.90;;;;;;5099681;28;20117;-43
2022/01/13 10:18:08;;;;;;;47.22;22.13;;;6.80;93.90;;;;;;5104672;28;20047;-42
2022/01/13 10:20:35;;;;;;;45.80;24.25;;;6.90;93.90;;;;;;5116269;28;20035;-42
2022/01/13 10:23:12;;;;;;;42.55;23.52;;;6.90;93.80;;;;;;5118861;28;20117;-42
2022/01/13 10:26:06;;;;;;;47.22;23.73;;;6.90;93.80;;;;;;5083869;28;20114;-42
2022/01/13 10:28:33;;;;;;;51.55;21.05;;;7.00;93.70;;;;;;5096653;28;20090;-43
2022/01/13 10:30:59;;;;;;;44.72;21.40;;;7.00;93.60;;;;;;5110816;28;20070;-43
2022/01/13 10:33:30;;;;;;;50.42;20.42;;;7.00;93.50;;;;;;5117213;28;20055;-44
2022/01/13 10:36:08;;;;;;;48.90;22.83;;;7.10;93.50;;;;;;5113311;28;20455;-43
2022/01/13 10:38:56;;;;;;;50.60;21.17;;;7.20;93.30;;;;;;5096852;28;20032;-43
2022/01/13 10:42:11;;;;;;;37.33;21.05;;;7.20;93.20;;;;;;5096677;28;20345;-43
2022/01/13 10:44:23;;;;;;;48.08;21.00;;;7.20;93.20;;;;;;5100119;28;20038;-44
2022/01/13 10:47:17;;;;;;;42.58;23.15;;;7.30;93.10;;;;;;5116269;28;20055;-43
2022/01/13 10:49:47;;;;;;;45.88;21.92;;;7.30;92.90;;;;;;5108838;28;20036;-43
2022/01/13 10:52:16;;;;;;;39.60;21.85;;;7.30;92.80;;;;;;5111108;28;20023;-43
2022/01/13 10:54:43;;;;;;;38.80;19.45;;;7.30;92.70;;;;;;5099375;28;20128;-43
2022/01/13 10:57:22;;;;;;;42.22;20.70;;;7.40;92.50;;;;;;5101862;28;20096;-43
2022/01/13 10:59:52;;;;;;;49.17;21.45;;;7.50;92.40;;;;;;5114355;28;20039;-43
2022/01/13 11:02:19;;;;;;;43.80;18.70;;;7.40;92.20;;;;;;5115932;28;20066;-43
2022/01/13 11:04:47;;;;;;;44.55;20.80;;;7.50;92.10;;;;;;5111557;28;20102;-43
2022/01/13 11:07:16;;;;;;;38.17;21.65;;;7.50;92.00;;;;;;5103494;28;20051;-43
2022/01/13 11:09:58;;;;;;;37.72;19.80;;;7.60;91.90;;;;;;5111881;28;20020;-44
2022/01/13 11:12:39;;;;;;;35.65;18.52;;;7.60;91.90;;;;;;5100669;28;20111;-44
2022/01/13 11:15:16;;;;;;;38.85;20.45;;;7.60;91.60;;;;;;5102447;28;20089;-44
2022/01/13 11:17:45;;;;;;;36.75;20.52;;;7.70;91.70;;;;;;5109471;28;20043;-44
2022/01/13 11:20:15;;;;;;;39.97;22.55;;;7.70;91.80;;;;;;5112019;28;20031;-43
2022/01/13 11:22:47;;;;;;;42.42;20.67;;;7.80;91.50;;;;;;5110275;28;20446;-44
2022/01/13 11:25:16;;;;;;;41.58;18.88;;;7.80;91.50;;;;;;5084137;28;20032;-43
2022/01/13 11:27:44;;;;;;;36.53;17.98;;;7.80;91.10;;;;;;5099662;28;20032;-46
2022/01/13 11:30:18;;;;;;;37.45;18.55;;;7.70;91.00;;;;;;5095441;28;20063;-44
2022/01/13 11:32:45;;;;;;;32.65;16.52;;;7.80;91.00;;;;;;5104796;28;20030;-45
2022/01/13 11:35:15;;;;;;;38.97;18.27;;;7.70;90.90;;;;;;5113399;28;20092;-44
2022/01/13 11:37:42;;;;;;;29.85;16.88;;;7.70;90.80;;;;;;5097563;28;20127;-44
2022/01/13 11:40:33;;;;;;;33.30;17.10;;;7.70;90.60;;;;;;5089977;28;20032;-44
2022/01/13 11:43:02;;;;;;;30.25;17.17;;;7.70;90.60;;;;;;5077492;28;20081;-44
2022/01/13 11:45:35;;;;;;;32.78;16.90;;;7.70;90.60;;;;;;5113575;28;20023;-47
2022/01/13 11:48:19;;;;;;;30.52;16.98;;;7.70;90.60;;;;;;5107514;28;20044;-44
2022/01/13 11:50:52;;;;;;;33.33;16.85;;;7.70;90.40;;;;;;5096029;28;20099;-44
2022/01/13 11:53:25;;;;;;;25.92;17.60;;;7.70;90.20;;;;;;5079058;28;20331;-45
2022/01/13 11:56:01;;;;;;;31.80;17.83;;;7.80;90.40;;;;;;5079401;28;20088;-45
2022/01/13 11:58:40;;;;;;;33.75;18.35;;;7.70;90.10;;;;;;5095369;28;20028;-44
2022/01/13 12:01:25;;;;;;;32.85;19.27;;;7.70;90.10;;;;;;5097230;28;20023;-46
2022/01/13 12:04:06;;;;;;;29.17;17.88;;;7.70;90.10;;;;;;5110971;28;20039;-44
2022/01/13 12:06:50;;;;;;;27.58;18.95;;;7.70;90.30;;;;;;5100148;28;20107;-44
2022/01/13 12:09:25;;;;;;;31.73;20.63;;;7.70;90.30;;;;;;5099919;28;20023;-46
2022/01/13 12:11:55;;;;;;;32.17;16.92;;;7.70;90.20;;;;;;5095669;28;20486;-44
2022/01/13 12:14:41;;;;;;;32.38;20.33;;;7.60;90.30;;;;;;5089308;28;20032;-46
2022/01/13 12:17:42;;;;;;;38.08;20.88;;;7.60;90.30;;;;;;5096591;28;20035;-45
2022/01/13 12:20:40;;;;;;;32.42;18.77;;;7.60;90.30;;;;;;5094993;28;20468;-45
2022/01/13 12:23:43;;;;;;;33.90;19.95;;;7.60;90.20;;;;;;5105885;28;20484;-45
2022/01/13 12:26:33;;;;;;;32.90;20.95;;;7.60;90.40;;;;;;5094314;28;20035;-44
2022/01/13 12:29:32;;;;;;;31.40;18.75;;;7.60;90.30;;;;;;5067004;28;20436;-45
2022/01/13 12:32:04;;;;;;;26.08;18.90;;;7.60;90.10;;;;;;5082528;28;20039;-45
2022/01/13 12:34:36;;;;;;;30.42;18.05;;;7.60;90.20;;;;;;5078467;28;20024;-45
2022/01/13 12:37:17;;;;;;;29.27;19.38;;;7.60;90.20;;;;;;5111755;28;20400;-45
2022/01/13 12:40:04;;;;;;;37.78;19.02;;;7.50;90.10;;;;;;5094740;28;20444;-45
2022/01/13 12:42:50;;;;;;;27.52;18.40;;;7.50;90.20;;;;;;5096379;28;20028;-45
2022/01/13 12:45:33;;;;;;;33.72;18.30;;;7.50;90.20;;;;;;5114404;28;20107;-45
2022/01/13 12:48:08;;;;;;;34.72;19.92;;;7.50;90.10;;;;;;5112820;28;20044;-45
2022/01/13 12:50:43;;;;;;;28.30;17.58;;;7.60;90.20;;;;;;5105116;28;20077;-46
2022/01/13 12:53:28;;;;;;;32.28;19.48;;;7.60;90.10;;;;;;5106335;28;20024;-45
2022/01/13 12:56:02;;;;;;;37.63;19.30;;;7.60;90.00;;;;;;5076124;28;20406;-45
2022/01/13 12:58:34;;;;;;;31.25;19.00;;;7.60;90.00;;;;;;5094823;28;20331;-44
2022/01/13 13:01:05;;;;;;;34.72;19.63;;;7.60;89.90;;;;;;5093984;28;20067;-47
2022/01/13 13:03:32;;;;;;;28.50;19.33;;;7.60;89.90;;;;;;5094219;28;20031;-45
2022/01/13 13:05:58;;;;;;;31.85;19.33;;;7.60;89.90;;;;;;5104834;28;20068;-48
2022/01/13 13:08:27;;;;;;;32.72;19.23;;;7.60;89.90;;;;;;5099694;28;20097;-45
2022/01/13 13:11:00;;;;;;;30.85;19.58;;;7.60;89.90;;;;;;5094721;28;20036;-46
2022/01/13 13:13:33;;;;;;;28.88;19.30;;;7.60;89.90;;;;;;5113881;28;20015;-45
2022/01/13 13:16:02;;;;;;;27.85;17.80;;;7.60;89.90;;;;;;5111565;28;20055;-47
2022/01/13 13:18:33;;;;;;;31.98;18.23;;;7.60;89.90;;;;;;5079586;28;20024;-46
2022/01/13 13:21:03;;;;;;;38.10;20.65;;;7.60;90.00;;;;;;5095550;28;20429;-45
2022/01/13 13:23:34;;;;;;;;;;;7.50;90.10;;;;;;5104780;28;20080;-45
2022/01/13 13:26:14;;;;;;;39.08;19.23;;;7.50;90.00;;;;;;5106796;28;20604;-46
2022/01/13 13:29:01;;;;;;;26.58;16.85;;;7.50;90.00;;;;;;5095910;28;20052;-45
2022/01/13 13:31:30;;;;;;;31.52;18.20;;;7.50;89.80;;;;;;5108452;28;20035;-45